sensor_id;sensor_type;location;lat;lon;timestamp;P1;durP1;ratioP1;P2;durP2;ratioP2
48268;SDS011;34088;52.232;5.196;2023-09-07T00:00:09;6.68;;;5.75;;
48268;SDS011;34088;52.232;5.196;2023-09-07T00:02:35;9.35;;;6.20;;
48268;SDS011;34088;52.232;5.196;2023-09-07T00:05:01;7.80;;;6.38;;
48268;SDS011;34088;52.232;5.196;2023-09-07T00:07:26;9.45;;;6.13;;
48268;SDS011;34088;52.232;5.196;2023-09-07T00:09:51;8.07;;;6.72;;
48268;SDS011;34088;52.232;5.196;2023-09-07T00:12:17;7.65;;;6.22;;
48268;SDS011;34088;52.232;5.196;2023-09-07T00:14:42;6.80;;;6.10;;
48268;SDS011;34088;52.232;5.196;2023-09-07T00:17:07;8.95;;;6.88;;
48268;SDS011;34088;52.232;5.196;2023-09-07T00:32:46;9.35;;;6.88;;
48268;SDS011;34088;52.232;5.196;2023-09-07T00:35:11;11.63;;;7.10;;
48268;SDS011;34088;52.232;5.196;2023-09-07T00:37:37;8.45;;;7.05;;
48268;SDS011;34088;52.232;5.196;2023-09-07T00:40:02;8.77;;;7.13;;
48268;SDS011;34088;52.232;5.196;2023-09-07T00:42:28;8.23;;;6.95;;
48268;SDS011;34088;52.232;5.196;2023-09-07T00:44:54;8.10;;;6.80;;
48268;SDS011;34088;52.232;5.196;2023-09-07T00:47:19;9.43;;;7.38;;
48268;SDS011;34088;52.232;5.196;2023-09-07T00:49:44;10.30;;;7.05;;
48268;SDS011;34088;52.232;5.196;2023-09-07T00:52:10;8.25;;;7.32;;
48268;SDS011;34088;52.232;5.196;2023-09-07T00:54:36;8.60;;;7.70;;
48268;SDS011;34088;52.232;5.196;2023-09-07T00:57:04;10.50;;;7.45;;
48268;SDS011;34088;52.232;5.196;2023-09-07T00:59:30;10.98;;;7.45;;
48268;SDS011;34088;52.232;5.196;2023-09-07T01:01:57;8.52;;;7.05;;
48268;SDS011;34088;52.232;5.196;2023-09-07T01:04:22;7.95;;;7.15;;
48268;SDS011;34088;52.232;5.196;2023-09-07T01:06:51;10.23;;;7.45;;
48268;SDS011;34088;52.232;5.196;2023-09-07T01:09:21;8.30;;;7.47;;
48268;SDS011;34088;52.232;5.196;2023-09-07T01:11:49;9.85;;;7.75;;
48268;SDS011;34088;52.232;5.196;2023-09-07T01:14:15;8.95;;;7.50;;
48268;SDS011;34088;52.232;5.196;2023-09-07T01:16:40;7.93;;;7.13;;
48268;SDS011;34088;52.232;5.196;2023-09-07T01:19:06;9.43;;;7.43;;
48268;SDS011;34088;52.232;5.196;2023-09-07T01:21:35;9.30;;;7.45;;
48268;SDS011;34088;52.232;5.196;2023-09-07T01:24:04;8.70;;;7.80;;
48268;SDS011;34088;52.232;5.196;2023-09-07T01:26:32;11.48;;;7.10;;
48268;SDS011;34088;52.232;5.196;2023-09-07T01:28:58;10.30;;;7.90;;
48268;SDS011;34088;52.232;5.196;2023-09-07T01:31:23;10.13;;;7.90;;
48268;SDS011;34088;52.232;5.196;2023-09-07T01:33:48;8.80;;;7.65;;
48268;SDS011;34088;52.232;5.196;2023-09-07T01:36:14;11.50;;;7.80;;
48268;SDS011;34088;52.232;5.196;2023-09-07T01:38:39;10.57;;;7.65;;
48268;SDS011;34088;52.232;5.196;2023-09-07T01:41:04;8.57;;;7.65;;
48268;SDS011;34088;52.232;5.196;2023-09-07T01:43:30;12.82;;;7.75;;
48268;SDS011;34088;52.232;5.196;2023-09-07T01:45:55;7.78;;;7.00;;
48268;SDS011;34088;52.232;5.196;2023-09-07T01:48:20;10.38;;;7.95;;
48268;SDS011;34088;52.232;5.196;2023-09-07T01:50:46;10.63;;;8.40;;
48268;SDS011;34088;52.232;5.196;2023-09-07T01:53:11;10.05;;;8.02;;
48268;SDS011;34088;52.232;5.196;2023-09-07T01:55:36;10.60;;;8.15;;
48268;SDS011;34088;52.232;5.196;2023-09-07T01:58:02;10.27;;;8.52;;
48268;SDS011;34088;52.232;5.196;2023-09-07T02:00:27;10.73;;;8.75;;
48268;SDS011;34088;52.232;5.196;2023-09-07T02:02:53;8.82;;;7.90;;
48268;SDS011;34088;52.232;5.196;2023-09-07T02:05:18;8.55;;;7.70;;
48268;SDS011;34088;52.232;5.196;2023-09-07T02:07:44;11.75;;;8.40;;
48268;SDS011;34088;52.232;5.196;2023-09-07T02:10:09;9.25;;;8.35;;
48268;SDS011;34088;52.232;5.196;2023-09-07T02:12:35;11.73;;;8.30;;
48268;SDS011;34088;52.232;5.196;2023-09-07T02:15:01;9.27;;;7.97;;
48268;SDS011;34088;52.232;5.196;2023-09-07T02:17:28;10.40;;;8.75;;
48268;SDS011;34088;52.232;5.196;2023-09-07T02:19:53;10.60;;;8.40;;
48268;SDS011;34088;52.232;5.196;2023-09-07T02:22:18;10.82;;;8.68;;
48268;SDS011;34088;52.232;5.196;2023-09-07T02:24:44;10.30;;;9.02;;
48268;SDS011;34088;52.232;5.196;2023-09-07T02:27:09;10.30;;;8.48;;
48268;SDS011;34088;52.232;5.196;2023-09-07T02:29:34;9.38;;;8.48;;
48268;SDS011;34088;52.232;5.196;2023-09-07T02:31:59;11.80;;;8.75;;
48268;SDS011;34088;52.232;5.196;2023-09-07T02:34:25;11.98;;;9.40;;
48268;SDS011;34088;52.232;5.196;2023-09-07T02:36:50;10.25;;;8.63;;
48268;SDS011;34088;52.232;5.196;2023-09-07T02:39:15;10.80;;;9.40;;
48268;SDS011;34088;52.232;5.196;2023-09-07T02:41:40;10.98;;;9.63;;
48268;SDS011;34088;52.232;5.196;2023-09-07T02:44:06;11.70;;;8.77;;
48268;SDS011;34088;52.232;5.196;2023-09-07T02:46:31;13.05;;;9.50;;
48268;SDS011;34088;52.232;5.196;2023-09-07T02:48:56;10.50;;;8.52;;
48268;SDS011;34088;52.232;5.196;2023-09-07T02:51:23;10.77;;;9.00;;
48268;SDS011;34088;52.232;5.196;2023-09-07T02:53:49;12.40;;;8.90;;
48268;SDS011;34088;52.232;5.196;2023-09-07T02:56:14;11.65;;;8.60;;
48268;SDS011;34088;52.232;5.196;2023-09-07T02:58:39;11.65;;;9.00;;
48268;SDS011;34088;52.232;5.196;2023-09-07T03:01:07;11.75;;;8.90;;
48268;SDS011;34088;52.232;5.196;2023-09-07T03:03:36;11.15;;;9.13;;
48268;SDS011;34088;52.232;5.196;2023-09-07T03:06:11;11.25;;;8.90;;
48268;SDS011;34088;52.232;5.196;2023-09-07T03:08:37;10.70;;;9.38;;
48268;SDS011;34088;52.232;5.196;2023-09-07T03:11:04;10.55;;;9.45;;
48268;SDS011;34088;52.232;5.196;2023-09-07T03:13:30;12.38;;;9.10;;
48268;SDS011;34088;52.232;5.196;2023-09-07T03:15:55;10.82;;;8.70;;
48268;SDS011;34088;52.232;5.196;2023-09-07T03:18:21;13.90;;;9.48;;
48268;SDS011;34088;52.232;5.196;2023-09-07T03:20:46;14.30;;;9.30;;
48268;SDS011;34088;52.232;5.196;2023-09-07T03:23:12;10.80;;;9.30;;
48268;SDS011;34088;52.232;5.196;2023-09-07T03:25:37;10.98;;;9.85;;
48268;SDS011;34088;52.232;5.196;2023-09-07T03:28:03;13.20;;;9.43;;
48268;SDS011;34088;52.232;5.196;2023-09-07T03:30:28;10.82;;;9.50;;
48268;SDS011;34088;52.232;5.196;2023-09-07T03:32:54;12.02;;;10.10;;
48268;SDS011;34088;52.232;5.196;2023-09-07T03:35:19;13.15;;;10.00;;
48268;SDS011;34088;52.232;5.196;2023-09-07T03:37:45;10.45;;;9.07;;
48268;SDS011;34088;52.232;5.196;2023-09-07T03:40:10;14.90;;;9.80;;
48268;SDS011;34088;52.232;5.196;2023-09-07T03:42:35;11.65;;;9.60;;
48268;SDS011;34088;52.232;5.196;2023-09-07T03:45:01;12.35;;;9.55;;
48268;SDS011;34088;52.232;5.196;2023-09-07T03:47:28;12.32;;;10.18;;
48268;SDS011;34088;52.232;5.196;2023-09-07T03:49:54;11.98;;;9.80;;
48268;SDS011;34088;52.232;5.196;2023-09-07T03:52:21;12.55;;;9.65;;
48268;SDS011;34088;52.232;5.196;2023-09-07T03:54:49;12.38;;;9.75;;
48268;SDS011;34088;52.232;5.196;2023-09-07T03:57:15;12.25;;;9.82;;
48268;SDS011;34088;52.232;5.196;2023-09-07T03:59:40;12.27;;;9.95;;
48268;SDS011;34088;52.232;5.196;2023-09-07T04:02:05;11.75;;;9.85;;
48268;SDS011;34088;52.232;5.196;2023-09-07T04:04:31;12.25;;;9.38;;
48268;SDS011;34088;52.232;5.196;2023-09-07T04:06:56;11.90;;;9.80;;
48268;SDS011;34088;52.232;5.196;2023-09-07T04:09:21;11.32;;;9.82;;
48268;SDS011;34088;52.232;5.196;2023-09-07T04:11:46;11.65;;;10.02;;
48268;SDS011;34088;52.232;5.196;2023-09-07T04:14:12;11.88;;;9.60;;
48268;SDS011;34088;52.232;5.196;2023-09-07T04:16:37;10.93;;;9.82;;
48268;SDS011;34088;52.232;5.196;2023-09-07T04:19:03;10.38;;;9.27;;
48268;SDS011;34088;52.232;5.196;2023-09-07T04:21:28;11.63;;;10.20;;
48268;SDS011;34088;52.232;5.196;2023-09-07T04:23:53;11.40;;;10.20;;
48268;SDS011;34088;52.232;5.196;2023-09-07T04:26:19;12.15;;;10.85;;
48268;SDS011;34088;52.232;5.196;2023-09-07T04:28:44;11.73;;;10.07;;
48268;SDS011;34088;52.232;5.196;2023-09-07T04:31:09;12.68;;;10.15;;
48268;SDS011;34088;52.232;5.196;2023-09-07T04:33:35;13.23;;;10.60;;
48268;SDS011;34088;52.232;5.196;2023-09-07T04:36:09;13.70;;;11.00;;
48268;SDS011;34088;52.232;5.196;2023-09-07T04:38:36;13.43;;;10.57;;
48268;SDS011;34088;52.232;5.196;2023-09-07T04:41:08;14.63;;;10.77;;
48268;SDS011;34088;52.232;5.196;2023-09-07T04:43:34;14.25;;;10.80;;
48268;SDS011;34088;52.232;5.196;2023-09-07T04:46:00;11.85;;;10.23;;
48268;SDS011;34088;52.232;5.196;2023-09-07T04:48:25;12.35;;;10.65;;
48268;SDS011;34088;52.232;5.196;2023-09-07T04:51:00;14.45;;;12.00;;
48268;SDS011;34088;52.232;5.196;2023-09-07T04:53:32;13.13;;;11.45;;
48268;SDS011;34088;52.232;5.196;2023-09-07T04:56:00;12.18;;;10.98;;
48268;SDS011;34088;52.232;5.196;2023-09-07T04:58:25;15.35;;;11.38;;
48268;SDS011;34088;52.232;5.196;2023-09-07T05:00:51;15.43;;;10.73;;
48268;SDS011;34088;52.232;5.196;2023-09-07T05:03:17;12.30;;;10.68;;
48268;SDS011;34088;52.232;5.196;2023-09-07T05:05:43;12.93;;;11.10;;
48268;SDS011;34088;52.232;5.196;2023-09-07T05:08:11;13.23;;;11.38;;
48268;SDS011;34088;52.232;5.196;2023-09-07T05:10:37;12.68;;;10.93;;
48268;SDS011;34088;52.232;5.196;2023-09-07T05:13:03;14.38;;;11.73;;
48268;SDS011;34088;52.232;5.196;2023-09-07T05:15:28;13.23;;;11.43;;
48268;SDS011;34088;52.232;5.196;2023-09-07T05:17:54;13.32;;;11.45;;
48268;SDS011;34088;52.232;5.196;2023-09-07T05:20:20;13.30;;;11.40;;
48268;SDS011;34088;52.232;5.196;2023-09-07T05:22:46;12.35;;;10.93;;
48268;SDS011;34088;52.232;5.196;2023-09-07T05:25:12;12.30;;;11.05;;
48268;SDS011;34088;52.232;5.196;2023-09-07T05:27:37;13.25;;;10.77;;
48268;SDS011;34088;52.232;5.196;2023-09-07T05:30:04;12.15;;;10.25;;
48268;SDS011;34088;52.232;5.196;2023-09-07T05:32:30;13.93;;;10.90;;
48268;SDS011;34088;52.232;5.196;2023-09-07T05:34:55;12.05;;;10.68;;
48268;SDS011;34088;52.232;5.196;2023-09-07T05:37:20;12.38;;;10.63;;
48268;SDS011;34088;52.232;5.196;2023-09-07T05:39:46;19.73;;;11.60;;
48268;SDS011;34088;52.232;5.196;2023-09-07T05:42:11;12.85;;;11.20;;
48268;SDS011;34088;52.232;5.196;2023-09-07T05:44:37;14.88;;;11.10;;
48268;SDS011;34088;52.232;5.196;2023-09-07T05:47:02;13.48;;;10.85;;
48268;SDS011;34088;52.232;5.196;2023-09-07T05:49:28;13.90;;;11.05;;
48268;SDS011;34088;52.232;5.196;2023-09-07T05:51:53;12.93;;;11.63;;
48268;SDS011;34088;52.232;5.196;2023-09-07T05:54:19;13.43;;;10.82;;
48268;SDS011;34088;52.232;5.196;2023-09-07T05:56:44;16.20;;;11.15;;
48268;SDS011;34088;52.232;5.196;2023-09-07T05:59:09;16.42;;;11.90;;
48268;SDS011;34088;52.232;5.196;2023-09-07T06:01:34;17.90;;;12.02;;
48268;SDS011;34088;52.232;5.196;2023-09-07T06:04:00;14.25;;;11.57;;
48268;SDS011;34088;52.232;5.196;2023-09-07T06:06:25;15.60;;;11.75;;
48268;SDS011;34088;52.232;5.196;2023-09-07T06:08:50;13.73;;;11.63;;
48268;SDS011;34088;52.232;5.196;2023-09-07T06:11:16;14.50;;;11.73;;
48268;SDS011;34088;52.232;5.196;2023-09-07T06:13:41;12.98;;;11.38;;
48268;SDS011;34088;52.232;5.196;2023-09-07T06:16:07;14.32;;;11.38;;
48268;SDS011;34088;52.232;5.196;2023-09-07T06:18:32;15.88;;;11.50;;
48268;SDS011;34088;52.232;5.196;2023-09-07T06:20:57;14.20;;;11.30;;
48268;SDS011;34088;52.232;5.196;2023-09-07T06:23:23;13.25;;;11.88;;
48268;SDS011;34088;52.232;5.196;2023-09-07T06:25:48;15.68;;;11.38;;
48268;SDS011;34088;52.232;5.196;2023-09-07T06:28:13;20.20;;;12.30;;
48268;SDS011;34088;52.232;5.196;2023-09-07T06:30:39;15.60;;;11.52;;
48268;SDS011;34088;52.232;5.196;2023-09-07T06:33:04;15.85;;;11.80;;
48268;SDS011;34088;52.232;5.196;2023-09-07T06:35:29;15.73;;;11.45;;
48268;SDS011;34088;52.232;5.196;2023-09-07T06:37:55;17.27;;;11.73;;
48268;SDS011;34088;52.232;5.196;2023-09-07T06:40:21;17.35;;;11.95;;
48268;SDS011;34088;52.232;5.196;2023-09-07T06:42:46;16.02;;;11.65;;
48268;SDS011;34088;52.232;5.196;2023-09-07T06:45:11;14.52;;;11.98;;
48268;SDS011;34088;52.232;5.196;2023-09-07T06:47:37;20.30;;;12.88;;
48268;SDS011;34088;52.232;5.196;2023-09-07T06:50:03;15.85;;;11.35;;
48268;SDS011;34088;52.232;5.196;2023-09-07T06:52:29;14.50;;;12.15;;
48268;SDS011;34088;52.232;5.196;2023-09-07T06:54:54;17.92;;;12.82;;
48268;SDS011;34088;52.232;5.196;2023-09-07T06:57:20;20.95;;;12.10;;
48268;SDS011;34088;52.232;5.196;2023-09-07T06:59:45;16.15;;;11.55;;
48268;SDS011;34088;52.232;5.196;2023-09-07T07:02:11;13.10;;;11.70;;
48268;SDS011;34088;52.232;5.196;2023-09-07T07:04:36;14.65;;;12.07;;
48268;SDS011;34088;52.232;5.196;2023-09-07T07:07:02;14.40;;;11.32;;
48268;SDS011;34088;52.232;5.196;2023-09-07T07:09:29;17.08;;;12.05;;
48268;SDS011;34088;52.232;5.196;2023-09-07T07:11:55;17.88;;;11.63;;
48268;SDS011;34088;52.232;5.196;2023-09-07T07:14:20;17.05;;;11.65;;
48268;SDS011;34088;52.232;5.196;2023-09-07T07:16:46;18.25;;;11.95;;
48268;SDS011;34088;52.232;5.196;2023-09-07T07:19:11;16.42;;;11.35;;
48268;SDS011;34088;52.232;5.196;2023-09-07T07:21:36;17.02;;;11.70;;
48268;SDS011;34088;52.232;5.196;2023-09-07T07:24:02;14.25;;;11.57;;
48268;SDS011;34088;52.232;5.196;2023-09-07T07:26:27;17.23;;;12.10;;
48268;SDS011;34088;52.232;5.196;2023-09-07T07:28:52;14.77;;;11.52;;
48268;SDS011;34088;52.232;5.196;2023-09-07T07:31:18;15.23;;;10.98;;
48268;SDS011;34088;52.232;5.196;2023-09-07T07:33:43;13.88;;;11.55;;
48268;SDS011;34088;52.232;5.196;2023-09-07T07:36:08;16.33;;;11.73;;
48268;SDS011;34088;52.232;5.196;2023-09-07T07:38:33;13.07;;;11.60;;
48268;SDS011;34088;52.232;5.196;2023-09-07T07:41:00;17.45;;;12.07;;
48268;SDS011;34088;52.232;5.196;2023-09-07T07:43:25;15.85;;;11.65;;
48268;SDS011;34088;52.232;5.196;2023-09-07T07:45:51;16.15;;;11.40;;
48268;SDS011;34088;52.232;5.196;2023-09-07T07:48:18;18.73;;;12.35;;
48268;SDS011;34088;52.232;5.196;2023-09-07T07:50:44;18.40;;;11.93;;
48268;SDS011;34088;52.232;5.196;2023-09-07T07:53:09;16.05;;;11.60;;
48268;SDS011;34088;52.232;5.196;2023-09-07T07:55:37;13.18;;;11.88;;
48268;SDS011;34088;52.232;5.196;2023-09-07T07:58:07;13.02;;;11.65;;
48268;SDS011;34088;52.232;5.196;2023-09-07T08:00:34;14.65;;;11.05;;
48268;SDS011;34088;52.232;5.196;2023-09-07T08:03:02;14.65;;;11.85;;
48268;SDS011;34088;52.232;5.196;2023-09-07T08:05:31;13.82;;;11.50;;
48268;SDS011;34088;52.232;5.196;2023-09-07T08:07:56;14.32;;;11.90;;
48268;SDS011;34088;52.232;5.196;2023-09-07T08:10:21;12.98;;;11.30;;
48268;SDS011;34088;52.232;5.196;2023-09-07T08:12:47;13.25;;;10.90;;
48268;SDS011;34088;52.232;5.196;2023-09-07T08:15:12;14.05;;;11.90;;
48268;SDS011;34088;52.232;5.196;2023-09-07T08:17:37;14.75;;;11.57;;
48268;SDS011;34088;52.232;5.196;2023-09-07T08:20:03;14.25;;;10.95;;
48268;SDS011;34088;52.232;5.196;2023-09-07T08:22:28;16.00;;;11.18;;
48268;SDS011;34088;52.232;5.196;2023-09-07T08:24:53;15.98;;;11.30;;
48268;SDS011;34088;52.232;5.196;2023-09-07T08:27:20;12.75;;;11.02;;
48268;SDS011;34088;52.232;5.196;2023-09-07T08:29:46;13.75;;;10.43;;
48268;SDS011;34088;52.232;5.196;2023-09-07T08:32:13;14.77;;;11.00;;
48268;SDS011;34088;52.232;5.196;2023-09-07T08:34:39;12.27;;;11.07;;
48268;SDS011;34088;52.232;5.196;2023-09-07T08:37:06;13.52;;;11.32;;
48268;SDS011;34088;52.232;5.196;2023-09-07T08:39:33;11.82;;;10.55;;
48268;SDS011;34088;52.232;5.196;2023-09-07T08:41:59;15.73;;;10.77;;
48268;SDS011;34088;52.232;5.196;2023-09-07T08:44:26;14.18;;;10.80;;
48268;SDS011;34088;52.232;5.196;2023-09-07T08:46:51;14.32;;;10.35;;
48268;SDS011;34088;52.232;5.196;2023-09-07T08:49:17;13.35;;;9.82;;
48268;SDS011;34088;52.232;5.196;2023-09-07T08:51:48;14.65;;;9.95;;
48268;SDS011;34088;52.232;5.196;2023-09-07T08:54:14;12.65;;;9.90;;
48268;SDS011;34088;52.232;5.196;2023-09-07T08:56:39;13.20;;;8.75;;
48268;SDS011;34088;52.232;5.196;2023-09-07T08:59:04;13.20;;;8.55;;
48268;SDS011;34088;52.232;5.196;2023-09-07T09:01:30;12.55;;;8.15;;
48268;SDS011;34088;52.232;5.196;2023-09-07T09:03:56;15.25;;;8.13;;
48268;SDS011;34088;52.232;5.196;2023-09-07T09:06:22;10.05;;;7.65;;
48268;SDS011;34088;52.232;5.196;2023-09-07T09:08:49;9.30;;;8.07;;
48268;SDS011;34088;52.232;5.196;2023-09-07T09:11:16;9.00;;;7.30;;
48268;SDS011;34088;52.232;5.196;2023-09-07T09:13:42;12.88;;;7.05;;
48268;SDS011;34088;52.232;5.196;2023-09-07T09:16:08;8.13;;;6.18;;
48268;SDS011;34088;52.232;5.196;2023-09-07T09:18:34;11.43;;;6.53;;
48268;SDS011;34088;52.232;5.196;2023-09-07T09:21:00;9.13;;;6.32;;
48268;SDS011;34088;52.232;5.196;2023-09-07T09:23:32;12.52;;;5.65;;
48268;SDS011;34088;52.232;5.196;2023-09-07T09:25:59;7.40;;;6.03;;
48268;SDS011;34088;52.232;5.196;2023-09-07T09:28:31;6.38;;;4.88;;
48268;SDS011;34088;52.232;5.196;2023-09-07T09:31:01;10.20;;;4.88;;
48268;SDS011;34088;52.232;5.196;2023-09-07T09:33:29;8.82;;;4.68;;
48268;SDS011;34088;52.232;5.196;2023-09-07T09:35:55;8.65;;;4.25;;
48268;SDS011;34088;52.232;5.196;2023-09-07T09:38:21;6.90;;;4.43;;
48268;SDS011;34088;52.232;5.196;2023-09-07T09:40:47;5.35;;;4.60;;
48268;SDS011;34088;52.232;5.196;2023-09-07T09:43:12;6.25;;;4.00;;
48268;SDS011;34088;52.232;5.196;2023-09-07T09:45:38;7.72;;;4.38;;
48268;SDS011;34088;52.232;5.196;2023-09-07T09:48:04;8.98;;;4.68;;
48268;SDS011;34088;52.232;5.196;2023-09-07T09:50:31;8.18;;;4.20;;
48268;SDS011;34088;52.232;5.196;2023-09-07T09:52:57;7.47;;;4.50;;
48268;SDS011;34088;52.232;5.196;2023-09-07T09:55:23;6.75;;;3.85;;
48268;SDS011;34088;52.232;5.196;2023-09-07T09:57:49;7.25;;;4.00;;
48268;SDS011;34088;52.232;5.196;2023-09-07T10:00:15;6.20;;;4.10;;
48268;SDS011;34088;52.232;5.196;2023-09-07T10:05:19;5.20;;;4.15;;
48268;SDS011;34088;52.232;5.196;2023-09-07T10:07:48;6.50;;;4.07;;
48268;SDS011;34088;52.232;5.196;2023-09-07T10:10:20;9.07;;;3.92;;
48268;SDS011;34088;52.232;5.196;2023-09-07T10:12:50;5.90;;;4.00;;
48268;SDS011;34088;52.232;5.196;2023-09-07T10:15:20;6.70;;;3.63;;
48268;SDS011;34088;52.232;5.196;2023-09-07T10:17:46;7.03;;;3.92;;
48268;SDS011;34088;52.232;5.196;2023-09-07T10:20:15;8.95;;;4.45;;
48268;SDS011;34088;52.232;5.196;2023-09-07T10:22:43;6.72;;;4.05;;
48268;SDS011;34088;52.232;5.196;2023-09-07T10:25:21;7.18;;;3.83;;
48268;SDS011;34088;52.232;5.196;2023-09-07T10:27:47;6.07;;;4.05;;
48268;SDS011;34088;52.232;5.196;2023-09-07T10:30:13;8.27;;;3.90;;
48268;SDS011;34088;52.232;5.196;2023-09-07T10:32:41;5.63;;;3.88;;
48268;SDS011;34088;52.232;5.196;2023-09-07T10:35:16;6.80;;;4.00;;
48268;SDS011;34088;52.232;5.196;2023-09-07T10:37:46;7.10;;;3.63;;
48268;SDS011;34088;52.232;5.196;2023-09-07T10:40:12;7.35;;;3.65;;
48268;SDS011;34088;52.232;5.196;2023-09-07T10:42:39;8.13;;;3.85;;
48268;SDS011;34088;52.232;5.196;2023-09-07T10:45:11;5.45;;;3.72;;
48268;SDS011;34088;52.232;5.196;2023-09-07T10:47:42;4.65;;;3.33;;
48268;SDS011;34088;52.232;5.196;2023-09-07T10:50:11;6.47;;;3.30;;
48268;SDS011;34088;52.232;5.196;2023-09-07T10:52:38;6.00;;;3.40;;
48268;SDS011;34088;52.232;5.196;2023-09-07T10:55:05;6.25;;;3.40;;
48268;SDS011;34088;52.232;5.196;2023-09-07T10:57:31;7.25;;;3.70;;
48268;SDS011;34088;52.232;5.196;2023-09-07T10:59:56;5.68;;;3.60;;
48268;SDS011;34088;52.232;5.196;2023-09-07T11:02:21;7.75;;;3.95;;
48268;SDS011;34088;52.232;5.196;2023-09-07T11:04:47;6.30;;;3.92;;
48268;SDS011;34088;52.232;5.196;2023-09-07T11:07:12;9.05;;;3.80;;
48268;SDS011;34088;52.232;5.196;2023-09-07T11:09:41;5.70;;;4.00;;
48268;SDS011;34088;52.232;5.196;2023-09-07T11:12:07;6.35;;;3.55;;
48268;SDS011;34088;52.232;5.196;2023-09-07T11:14:33;6.20;;;3.78;;
48268;SDS011;34088;52.232;5.196;2023-09-07T11:17:00;4.85;;;3.50;;
48268;SDS011;34088;52.232;5.196;2023-09-07T11:19:26;19.00;;;4.35;;
48268;SDS011;34088;52.232;5.196;2023-09-07T11:21:53;5.70;;;3.72;;
48268;SDS011;34088;52.232;5.196;2023-09-07T11:24:19;4.20;;;3.45;;
48268;SDS011;34088;52.232;5.196;2023-09-07T11:26:45;7.47;;;3.50;;
48268;SDS011;34088;52.232;5.196;2023-09-07T11:29:15;6.03;;;3.92;;
48268;SDS011;34088;52.232;5.196;2023-09-07T11:31:41;5.88;;;3.70;;
48268;SDS011;34088;52.232;5.196;2023-09-07T11:34:10;13.35;;;3.88;;
48268;SDS011;34088;52.232;5.196;2023-09-07T11:36:37;6.10;;;3.80;;
48268;SDS011;34088;52.232;5.196;2023-09-07T11:39:04;16.90;;;4.80;;
48268;SDS011;34088;52.232;5.196;2023-09-07T11:41:37;4.85;;;3.70;;
48268;SDS011;34088;52.232;5.196;2023-09-07T11:44:03;6.40;;;3.83;;
48268;SDS011;34088;52.232;5.196;2023-09-07T11:46:28;6.07;;;3.60;;
48268;SDS011;34088;52.232;5.196;2023-09-07T11:48:54;4.63;;;3.58;;
48268;SDS011;34088;52.232;5.196;2023-09-07T11:51:19;4.72;;;3.55;;
48268;SDS011;34088;52.232;5.196;2023-09-07T11:53:46;5.35;;;3.80;;
48268;SDS011;34088;52.232;5.196;2023-09-07T11:56:11;5.53;;;3.67;;
48268;SDS011;34088;52.232;5.196;2023-09-07T11:58:37;4.65;;;3.50;;
48268;SDS011;34088;52.232;5.196;2023-09-07T12:01:02;5.45;;;3.70;;
48268;SDS011;34088;52.232;5.196;2023-09-07T12:03:29;7.78;;;3.70;;
48268;SDS011;34088;52.232;5.196;2023-09-07T12:05:55;6.53;;;3.83;;
48268;SDS011;34088;52.232;5.196;2023-09-07T12:08:20;9.50;;;3.60;;
48268;SDS011;34088;52.232;5.196;2023-09-07T12:10:45;6.28;;;3.60;;
48268;SDS011;34088;52.232;5.196;2023-09-07T12:13:11;4.93;;;3.25;;
48268;SDS011;34088;52.232;5.196;2023-09-07T12:15:37;7.40;;;3.63;;
48268;SDS011;34088;52.232;5.196;2023-09-07T12:18:02;4.38;;;3.78;;
48268;SDS011;34088;52.232;5.196;2023-09-07T12:20:28;5.63;;;3.75;;
48268;SDS011;34088;52.232;5.196;2023-09-07T12:22:54;4.55;;;3.75;;
48268;SDS011;34088;52.232;5.196;2023-09-07T12:25:19;5.97;;;3.60;;
48268;SDS011;34088;52.232;5.196;2023-09-07T12:27:44;4.38;;;3.60;;
48268;SDS011;34088;52.232;5.196;2023-09-07T12:30:11;5.15;;;3.40;;
48268;SDS011;34088;52.232;5.196;2023-09-07T12:32:38;7.68;;;3.50;;
48268;SDS011;34088;52.232;5.196;2023-09-07T12:35:05;5.95;;;3.90;;
48268;SDS011;34088;52.232;5.196;2023-09-07T12:37:33;4.63;;;3.95;;
48268;SDS011;34088;52.232;5.196;2023-09-07T12:39:59;7.00;;;3.72;;
48268;SDS011;34088;52.232;5.196;2023-09-07T12:42:25;6.63;;;4.07;;
48268;SDS011;34088;52.232;5.196;2023-09-07T12:44:50;7.05;;;3.72;;
48268;SDS011;34088;52.232;5.196;2023-09-07T12:47:15;6.90;;;3.83;;
48268;SDS011;34088;52.232;5.196;2023-09-07T12:49:40;7.65;;;4.03;;
48268;SDS011;34088;52.232;5.196;2023-09-07T12:52:06;8.93;;;3.60;;
48268;SDS011;34088;52.232;5.196;2023-09-07T12:54:35;10.05;;;4.00;;
48268;SDS011;34088;52.232;5.196;2023-09-07T12:57:01;5.82;;;3.63;;
48268;SDS011;34088;52.232;5.196;2023-09-07T12:59:28;10.50;;;3.85;;
48268;SDS011;34088;52.232;5.196;2023-09-07T13:01:53;6.82;;;3.90;;
48268;SDS011;34088;52.232;5.196;2023-09-07T13:04:20;6.65;;;3.83;;
48268;SDS011;34088;52.232;5.196;2023-09-07T13:06:46;6.78;;;3.78;;
48268;SDS011;34088;52.232;5.196;2023-09-07T13:09:11;4.45;;;3.58;;
48268;SDS011;34088;52.232;5.196;2023-09-07T13:11:36;5.28;;;3.80;;
48268;SDS011;34088;52.232;5.196;2023-09-07T13:14:02;5.68;;;3.72;;
48268;SDS011;34088;52.232;5.196;2023-09-07T13:16:27;6.07;;;3.53;;
48268;SDS011;34088;52.232;5.196;2023-09-07T13:18:52;5.65;;;3.58;;
48268;SDS011;34088;52.232;5.196;2023-09-07T13:21:17;5.20;;;3.45;;
48268;SDS011;34088;52.232;5.196;2023-09-07T13:23:43;6.03;;;3.53;;
48268;SDS011;34088;52.232;5.196;2023-09-07T13:26:08;4.97;;;3.78;;
48268;SDS011;34088;52.232;5.196;2023-09-07T13:28:34;5.25;;;3.70;;
48268;SDS011;34088;52.232;5.196;2023-09-07T13:30:59;5.55;;;3.53;;
48268;SDS011;34088;52.232;5.196;2023-09-07T13:33:24;5.07;;;3.28;;
48268;SDS011;34088;52.232;5.196;2023-09-07T13:35:50;5.82;;;3.42;;
48268;SDS011;34088;52.232;5.196;2023-09-07T13:38:15;4.65;;;3.60;;
48268;SDS011;34088;52.232;5.196;2023-09-07T13:40:41;4.18;;;3.78;;
48268;SDS011;34088;52.232;5.196;2023-09-07T13:43:06;4.30;;;3.60;;
48268;SDS011;34088;52.232;5.196;2023-09-07T13:45:31;3.85;;;3.30;;
48268;SDS011;34088;52.232;5.196;2023-09-07T13:47:57;6.97;;;3.58;;
48268;SDS011;34088;52.232;5.196;2023-09-07T13:50:22;6.45;;;3.33;;
48268;SDS011;34088;52.232;5.196;2023-09-07T13:52:48;4.30;;;3.50;;
48268;SDS011;34088;52.232;5.196;2023-09-07T13:55:13;5.47;;;3.40;;
48268;SDS011;34088;52.232;5.196;2023-09-07T13:57:38;5.57;;;3.42;;
48268;SDS011;34088;52.232;5.196;2023-09-07T14:00:04;6.05;;;4.00;;
48268;SDS011;34088;52.232;5.196;2023-09-07T14:02:30;4.47;;;3.35;;
48268;SDS011;34088;52.232;5.196;2023-09-07T14:04:57;5.70;;;3.80;;
48268;SDS011;34088;52.232;5.196;2023-09-07T14:07:22;5.35;;;3.63;;
48268;SDS011;34088;52.232;5.196;2023-09-07T14:09:50;6.90;;;3.70;;
48268;SDS011;34088;52.232;5.196;2023-09-07T14:12:16;4.63;;;3.63;;
48268;SDS011;34088;52.232;5.196;2023-09-07T14:14:41;6.18;;;3.70;;
48268;SDS011;34088;52.232;5.196;2023-09-07T14:17:07;6.10;;;3.92;;
48268;SDS011;34088;52.232;5.196;2023-09-07T14:19:32;6.78;;;3.40;;
48268;SDS011;34088;52.232;5.196;2023-09-07T14:21:57;4.43;;;3.75;;
48268;SDS011;34088;52.232;5.196;2023-09-07T14:24:23;5.03;;;3.72;;
48268;SDS011;34088;52.232;5.196;2023-09-07T14:26:49;7.97;;;3.63;;
48268;SDS011;34088;52.232;5.196;2023-09-07T14:29:15;5.28;;;3.63;;
48268;SDS011;34088;52.232;5.196;2023-09-07T14:31:40;4.53;;;3.60;;
48268;SDS011;34088;52.232;5.196;2023-09-07T14:34:07;6.55;;;3.78;;
48268;SDS011;34088;52.232;5.196;2023-09-07T14:36:33;7.40;;;4.20;;
48268;SDS011;34088;52.232;5.196;2023-09-07T14:38:58;5.63;;;3.72;;
48268;SDS011;34088;52.232;5.196;2023-09-07T14:41:23;4.78;;;3.65;;
48268;SDS011;34088;52.232;5.196;2023-09-07T14:43:48;5.30;;;3.78;;